sensor_id;sensor_type;location;lat;lon;timestamp;temperature;humidity
16728;DHT22;8482;54.396;18.590;2022-09-06T00:00:40;13.80;99.90
16728;DHT22;8482;54.396;18.590;2022-09-06T00:03:06;13.80;99.90
16728;DHT22;8482;54.396;18.590;2022-09-06T00:05:33;13.90;99.90
16728;DHT22;8482;54.396;18.590;2022-09-06T00:08:01;13.90;99.90
16728;DHT22;8482;54.396;18.590;2022-09-06T00:10:29;13.90;99.90
16728;DHT22;8482;54.396;18.590;2022-09-06T00:13:03;13.90;99.90
16728;DHT22;8482;54.396;18.590;2022-09-06T00:15:30;13.80;99.90
16728;DHT22;8482;54.396;18.590;2022-09-06T00:17:58;13.80;99.90
16728;DHT22;8482;54.396;18.590;2022-09-06T00:20:27;13.80;99.90
16728;DHT22;8482;54.396;18.590;2022-09-06T00:23:01;13.70;99.90
16728;DHT22;8482;54.396;18.590;2022-09-06T00:25:28;13.70;99.90
16728;DHT22;8482;54.396;18.590;2022-09-06T00:28:01;13.70;99.90
16728;DHT22;8482;54.396;18.590;2022-09-06T00:30:30;13.70;99.90
16728;DHT22;8482;54.396;18.590;2022-09-06T00:32:57;13.60;99.90
16728;DHT22;8482;54.396;18.590;2022-09-06T00:35:24;13.60;99.90
16728;DHT22;8482;54.396;18.590;2022-09-06T00:37:58;13.50;99.90
16728;DHT22;8482;54.396;18.590;2022-09-06T00:40:26;13.50;99.90
16728;DHT22;8482;54.396;18.590;2022-09-06T00:42:54;13.50;99.90
16728;DHT22;8482;54.396;18.590;2022-09-06T00:45:22;13.40;99.90
16728;DHT22;8482;54.396;18.590;2022-09-06T00:47:50;13.40;99.90
16728;DHT22;8482;54.396;18.590;2022-09-06T00:50:17;13.40;99.90
16728;DHT22;8482;54.396;18.590;2022-09-06T00:52:45;13.40;99.90
16728;DHT22;8482;54.396;18.590;2022-09-06T00:55:14;13.40;99.90
16728;DHT22;8482;54.396;18.590;2022-09-06T00:57:40;13.40;99.90
16728;DHT22;8482;54.396;18.590;2022-09-06T01:00:07;13.40;99.90
16728;DHT22;8482;54.396;18.590;2022-09-06T01:02:34;13.40;99.90
16728;DHT22;8482;54.396;18.590;2022-09-06T01:05:01;13.40;99.90
16728;DHT22;8482;54.396;18.590;2022-09-06T01:13:03;13.40;99.90
16728;DHT22;8482;54.396;18.590;2022-09-06T01:15:58;13.40;99.90
16728;DHT22;8482;54.396;18.590;2022-09-06T01:27:25;13.40;99.90
16728;DHT22;8482;54.396;18.590;2022-09-06T01:30:08;13.40;99.90
16728;DHT22;8482;54.396;18.590;2022-09-06T01:35:29;13.40;99.90
16728;DHT22;8482;54.396;18.590;2022-09-06T01:38:08;13.50;99.90
16728;DHT22;8482;54.396;18.590;2022-09-06T01:40:35;13.50;99.90
16728;DHT22;8482;54.396;18.590;2022-09-06T01:43:03;13.50;99.90
16728;DHT22;8482;54.396;18.590;2022-09-06T01:46:06;13.50;99.90
16728;DHT22;8482;54.396;18.590;2022-09-06T01:54:45;13.50;99.90
16728;DHT22;8482;54.396;18.590;2022-09-06T02:00:27;13.60;99.90
16728;DHT22;8482;54.396;18.590;2022-09-06T02:06:32;13.70;99.90
16728;DHT22;8482;54.396;18.590;2022-09-06T02:09:10;13.70;99.90
16728;DHT22;8482;54.396;18.590;2022-09-06T02:11:50;13.70;99.90
16728;DHT22;8482;54.396;18.590;2022-09-06T02:14:24;13.70;99.90
16728;DHT22;8482;54.396;18.590;2022-09-06T02:16:56;13.70;99.90
16728;DHT22;8482;54.396;18.590;2022-09-06T02:19:32;13.70;99.90
16728;DHT22;8482;54.396;18.590;2022-09-06T02:22:07;13.70;99.90
16728;DHT22;8482;54.396;18.590;2022-09-06T02:24:35;13.70;99.90
16728;DHT22;8482;54.396;18.590;2022-09-06T02:27:05;13.70;99.90
16728;DHT22;8482;54.396;18.590;2022-09-06T02:29:32;13.80;99.90
16728;DHT22;8482;54.396;18.590;2022-09-06T02:34:37;13.80;99.90
16728;DHT22;8482;54.396;18.590;2022-09-06T02:37:07;13.80;99.90
16728;DHT22;8482;54.396;18.590;2022-09-06T02:39:36;13.80;99.90
16728;DHT22;8482;54.396;18.590;2022-09-06T02:42:02;13.80;99.90
16728;DHT22;8482;54.396;18.590;2022-09-06T02:44:30;13.80;99.90
16728;DHT22;8482;54.396;18.590;2022-09-06T02:46:57;13.80;99.90
16728;DHT22;8482;54.396;18.590;2022-09-06T02:49:23;13.80;99.90
16728;DHT22;8482;54.396;18.590;2022-09-06T02:51:49;13.80;99.90
16728;DHT22;8482;54.396;18.590;2022-09-06T02:54:15;13.80;99.90
16728;DHT22;8482;54.396;18.590;2022-09-06T02:56:41;13.90;99.90
16728;DHT22;8482;54.396;18.590;2022-09-06T02:59:06;13.90;99.90
16728;DHT22;8482;54.396;18.590;2022-09-06T03:01:33;13.90;99.90
16728;DHT22;8482;54.396;18.590;2022-09-06T03:03:59;13.90;99.90
16728;DHT22;8482;54.396;18.590;2022-09-06T03:06:25;13.90;99.90
16728;DHT22;8482;54.396;18.590;2022-09-06T03:08:50;13.90;99.90
16728;DHT22;8482;54.396;18.590;2022-09-06T03:11:16;13.90;99.90
16728;DHT22;8482;54.396;18.590;2022-09-06T03:13:42;13.90;99.90
16728;DHT22;8482;54.396;18.590;2022-09-06T03:16:08;14.00;99.90
16728;DHT22;8482;54.396;18.590;2022-09-06T03:18:34;13.90;99.90
16728;DHT22;8482;54.396;18.590;2022-09-06T03:21:00;13.90;99.90
16728;DHT22;8482;54.396;18.590;2022-09-06T03:23:27;14.00;99.90
16728;DHT22;8482;54.396;18.590;2022-09-06T03:25:54;13.90;99.90
16728;DHT22;8482;54.396;18.590;2022-09-06T03:28:21;13.90;99.90
16728;DHT22;8482;54.396;18.590;2022-09-06T03:30:49;13.90;99.90
16728;DHT22;8482;54.396;18.590;2022-09-06T03:33:16;13.90;99.90
16728;DHT22;8482;54.396;18.590;2022-09-06T03:35:50;13.90;99.90
16728;DHT22;8482;54.396;18.590;2022-09-06T03:38:22;13.90;99.90
16728;DHT22;8482;54.396;18.590;2022-09-06T03:40:49;13.90;99.90
16728;DHT22;8482;54.396;18.590;2022-09-06T03:43:17;13.90;99.90
16728;DHT22;8482;54.396;18.590;2022-09-06T03:45:49;13.90;99.90
16728;DHT22;8482;54.396;18.590;2022-09-06T03:48:17;13.90;99.90
16728;DHT22;8482;54.396;18.590;2022-09-06T03:50:45;13.90;99.90
16728;DHT22;8482;54.396;18.590;2022-09-06T03:53:12;13.90;99.90
16728;DHT22;8482;54.396;18.590;2022-09-06T03:55:42;13.90;99.90
16728;DHT22;8482;54.396;18.590;2022-09-06T03:58:09;13.90;99.90
16728;DHT22;8482;54.396;18.590;2022-09-06T04:00:35;13.90;99.90
16728;DHT22;8482;54.396;18.590;2022-09-06T04:03:01;13.90;99.90
16728;DHT22;8482;54.396;18.590;2022-09-06T04:05:27;13.90;99.90
16728;DHT22;8482;54.396;18.590;2022-09-06T04:07:52;13.90;99.90
16728;DHT22;8482;54.396;18.590;2022-09-06T04:10:18;13.90;99.90
16728;DHT22;8482;54.396;18.590;2022-09-06T04:12:44;13.90;99.90
16728;DHT22;8482;54.396;18.590;2022-09-06T04:15:10;14.00;99.90
16728;DHT22;8482;54.396;18.590;2022-09-06T04:17:36;13.90;99.90
16728;DHT22;8482;54.396;18.590;2022-09-06T04:20:02;13.90;99.90
16728;DHT22;8482;54.396;18.590;2022-09-06T04:22:29;13.90;99.90
16728;DHT22;8482;54.396;18.590;2022-09-06T04:24:55;13.90;99.90
16728;DHT22;8482;54.396;18.590;2022-09-06T04:27:22;13.90;99.90
16728;DHT22;8482;54.396;18.590;2022-09-06T04:29:48;13.90;99.90
16728;DHT22;8482;54.396;18.590;2022-09-06T04:32:14;13.90;99.90
16728;DHT22;8482;54.396;18.590;2022-09-06T04:34:39;14.00;99.90
16728;DHT22;8482;54.396;18.590;2022-09-06T04:37:05;14.00;99.90
16728;DHT22;8482;54.396;18.590;2022-09-06T04:39:31;14.00;99.90
16728;DHT22;8482;54.396;18.590;2022-09-06T04:41:56;14.00;99.90
16728;DHT22;8482;54.396;18.590;2022-09-06T04:44:22;14.00;99.90
16728;DHT22;8482;54.396;18.590;2022-09-06T04:46:48;14.00;99.90
16728;DHT22;8482;54.396;18.590;2022-09-06T04:49:14;14.00;99.90
16728;DHT22;8482;54.396;18.590;2022-09-06T04:51:40;14.00;99.90
16728;DHT22;8482;54.396;18.590;2022-09-06T04:54:05;14.10;99.90
16728;DHT22;8482;54.396;18.590;2022-09-06T04:56:31;14.10;99.90
16728;DHT22;8482;54.396;18.590;2022-09-06T04:58:57;14.10;99.90
16728;DHT22;8482;54.396;18.590;2022-09-06T05:01:23;14.10;99.90
16728;DHT22;8482;54.396;18.590;2022-09-06T05:03:50;14.10;99.90
16728;DHT22;8482;54.396;18.590;2022-09-06T05:06:21;14.10;99.90
16728;DHT22;8482;54.396;18.590;2022-09-06T05:08:48;14.10;99.90
16728;DHT22;8482;54.396;18.590;2022-09-06T05:11:16;14.20;99.90
16728;DHT22;8482;54.396;18.590;2022-09-06T05:13:42;14.20;99.90
16728;DHT22;8482;54.396;18.590;2022-09-06T05:16:08;14.10;99.90
16728;DHT22;8482;54.396;18.590;2022-09-06T05:18:34;14.20;99.90
16728;DHT22;8482;54.396;18.590;2022-09-06T05:21:00;14.20;99.90
16728;DHT22;8482;54.396;18.590;2022-09-06T05:23:26;14.20;99.90
16728;DHT22;8482;54.396;18.590;2022-09-06T05:25:53;14.30;99.90
16728;DHT22;8482;54.396;18.590;2022-09-06T05:28:19;14.30;99.90
16728;DHT22;8482;54.396;18.590;2022-09-06T05:30:45;14.30;99.90
16728;DHT22;8482;54.396;18.590;2022-09-06T05:33:13;14.30;99.90
16728;DHT22;8482;54.396;18.590;2022-09-06T05:35:44;14.30;99.90
16728;DHT22;8482;54.396;18.590;2022-09-06T05:38:10;14.40;99.90
16728;DHT22;8482;54.396;18.590;2022-09-06T05:40:36;14.40;99.90
16728;DHT22;8482;54.396;18.590;2022-09-06T05:43:02;14.40;99.90
16728;DHT22;8482;54.396;18.590;2022-09-06T05:45:28;14.40;99.90
16728;DHT22;8482;54.396;18.590;2022-09-06T05:47:53;14.50;99.90
16728;DHT22;8482;54.396;18.590;2022-09-06T05:50:19;14.50;99.90
16728;DHT22;8482;54.396;18.590;2022-09-06T05:52:45;14.50;99.90
16728;DHT22;8482;54.396;18.590;2022-09-06T05:55:11;14.60;99.90
16728;DHT22;8482;54.396;18.590;2022-09-06T05:57:37;14.60;99.90
16728;DHT22;8482;54.396;18.590;2022-09-06T06:00:04;14.60;99.90
16728;DHT22;8482;54.396;18.590;2022-09-06T06:02:31;14.70;99.90
16728;DHT22;8482;54.396;18.590;2022-09-06T06:04:57;14.70;99.90
16728;DHT22;8482;54.396;18.590;2022-09-06T06:07:23;14.70;99.90
16728;DHT22;8482;54.396;18.590;2022-09-06T06:09:49;14.80;99.90
16728;DHT22;8482;54.396;18.590;2022-09-06T06:12:14;14.90;99.90
16728;DHT22;8482;54.396;18.590;2022-09-06T06:14:40;14.90;99.90
16728;DHT22;8482;54.396;18.590;2022-09-06T06:17:06;15.00;99.90
16728;DHT22;8482;54.396;18.590;2022-09-06T06:19:32;15.00;99.90
16728;DHT22;8482;54.396;18.590;2022-09-06T06:21:58;15.00;99.90
16728;DHT22;8482;54.396;18.590;2022-09-06T06:24:23;15.10;99.90
16728;DHT22;8482;54.396;18.590;2022-09-06T06:26:50;15.20;99.90
16728;DHT22;8482;54.396;18.590;2022-09-06T06:29:16;15.20;99.90
16728;DHT22;8482;54.396;18.590;2022-09-06T06:31:41;15.30;99.90
16728;DHT22;8482;54.396;18.590;2022-09-06T06:34:07;15.30;99.90
16728;DHT22;8482;54.396;18.590;2022-09-06T06:36:34;15.40;99.90
16728;DHT22;8482;54.396;18.590;2022-09-06T06:39:03;15.40;99.90
16728;DHT22;8482;54.396;18.590;2022-09-06T06:41:32;15.50;99.90
16728;DHT22;8482;54.396;18.590;2022-09-06T06:44:00;15.50;99.90
16728;DHT22;8482;54.396;18.590;2022-09-06T06:46:29;15.50;99.90
16728;DHT22;8482;54.396;18.590;2022-09-06T06:48:57;15.60;99.90
16728;DHT22;8482;54.396;18.590;2022-09-06T06:51:26;15.60;99.90
16728;DHT22;8482;54.396;18.590;2022-09-06T06:53:54;15.70;99.90
16728;DHT22;8482;54.396;18.590;2022-09-06T06:59:11;15.70;99.90
16728;DHT22;8482;54.396;18.590;2022-09-06T07:01:37;15.80;99.90
16728;DHT22;8482;54.396;18.590;2022-09-06T07:04:03;15.80;99.90
16728;DHT22;8482;54.396;18.590;2022-09-06T07:06:30;15.90;99.90
16728;DHT22;8482;54.396;18.590;2022-09-06T07:09:09;15.90;99.90
16728;DHT22;8482;54.396;18.590;2022-09-06T07:11:35;16.00;99.90
16728;DHT22;8482;54.396;18.590;2022-09-06T07:14:01;16.00;99.90
16728;DHT22;8482;54.396;18.590;2022-09-06T07:16:26;16.00;99.90
16728;DHT22;8482;54.396;18.590;2022-09-06T07:18:54;16.10;99.90
16728;DHT22;8482;54.396;18.590;2022-09-06T07:21:24;16.10;99.90
16728;DHT22;8482;54.396;18.590;2022-09-06T07:23:53;16.20;99.90
16728;DHT22;8482;54.396;18.590;2022-09-06T07:26:22;16.20;99.90
16728;DHT22;8482;54.396;18.590;2022-09-06T07:29:08;16.30;99.90
16728;DHT22;8482;54.396;18.590;2022-09-06T07:31:36;16.30;99.90
16728;DHT22;8482;54.396;18.590;2022-09-06T07:34:02;16.30;99.90
16728;DHT22;8482;54.396;18.590;2022-09-06T07:36:29;16.40;99.90
16728;DHT22;8482;54.396;18.590;2022-09-06T07:38:55;16.40;99.90
16728;DHT22;8482;54.396;18.590;2022-09-06T07:41:21;16.50;99.90
16728;DHT22;8482;54.396;18.590;2022-09-06T07:43:47;16.50;99.90
16728;DHT22;8482;54.396;18.590;2022-09-06T07:46:18;16.50;99.90
16728;DHT22;8482;54.396;18.590;2022-09-06T07:48:45;16.60;99.90
16728;DHT22;8482;54.396;18.590;2022-09-06T07:51:20;16.60;99.90
16728;DHT22;8482;54.396;18.590;2022-09-06T07:53:49;16.60;99.90
16728;DHT22;8482;54.396;18.590;2022-09-06T07:56:17;16.70;99.90
16728;DHT22;8482;54.396;18.590;2022-09-06T07:58:44;16.70;99.90
16728;DHT22;8482;54.396;18.590;2022-09-06T08:01:33;16.70;99.90
16728;DHT22;8482;54.396;18.590;2022-09-06T08:04:01;16.70;99.90
16728;DHT22;8482;54.396;18.590;2022-09-06T08:06:31;16.80;99.90
16728;DHT22;8482;54.396;18.590;2022-09-06T08:08:59;16.80;99.90
16728;DHT22;8482;54.396;18.590;2022-09-06T08:11:27;16.80;99.90
16728;DHT22;8482;54.396;18.590;2022-09-06T08:13:56;16.90;99.90
16728;DHT22;8482;54.396;18.590;2022-09-06T08:16:24;16.90;99.90
16728;DHT22;8482;54.396;18.590;2022-09-06T08:18:53;17.00;99.90
16728;DHT22;8482;54.396;18.590;2022-09-06T08:21:22;17.00;99.90
16728;DHT22;8482;54.396;18.590;2022-09-06T08:24:01;17.00;99.90
16728;DHT22;8482;54.396;18.590;2022-09-06T08:26:29;17.10;99.90
16728;DHT22;8482;54.396;18.590;2022-09-06T08:29:02;17.10;99.90
16728;DHT22;8482;54.396;18.590;2022-09-06T08:31:32;17.10;99.90
16728;DHT22;8482;54.396;18.590;2022-09-06T08:34:00;17.20;99.90
16728;DHT22;8482;54.396;18.590;2022-09-06T08:36:28;17.20;99.90
16728;DHT22;8482;54.396;18.590;2022-09-06T08:38:59;17.30;99.90
16728;DHT22;8482;54.396;18.590;2022-09-06T08:44:14;17.40;99.90
16728;DHT22;8482;54.396;18.590;2022-09-06T08:47:05;17.40;99.90
16728;DHT22;8482;54.396;18.590;2022-09-06T08:53:06;17.60;99.90
16728;DHT22;8482;54.396;18.590;2022-09-06T08:55:43;17.60;99.90
16728;DHT22;8482;54.396;18.590;2022-09-06T09:01:05;17.70;99.70
16728;DHT22;8482;54.396;18.590;2022-09-06T09:03:38;17.70;99.70
16728;DHT22;8482;54.396;18.590;2022-09-06T09:06:06;17.80;99.70
16728;DHT22;8482;54.396;18.590;2022-09-06T09:08:51;17.90;99.80
16728;DHT22;8482;54.396;18.590;2022-09-06T09:11:28;17.90;99.50
16728;DHT22;8482;54.396;18.590;2022-09-06T09:14:17;18.00;99.00
16728;DHT22;8482;54.396;18.590;2022-09-06T09:16:52;18.10;98.90
16728;DHT22;8482;54.396;18.590;2022-09-06T09:19:20;18.20;98.80
16728;DHT22;8482;54.396;18.590;2022-09-06T09:21:46;18.20;98.60
16728;DHT22;8482;54.396;18.590;2022-09-06T09:24:13;18.30;98.60
16728;DHT22;8482;54.396;18.590;2022-09-06T09:27:01;18.30;98.80
16728;DHT22;8482;54.396;18.590;2022-09-06T09:29:30;18.40;98.60
16728;DHT22;8482;54.396;18.590;2022-09-06T09:31:56;18.40;98.50
16728;DHT22;8482;54.396;18.590;2022-09-06T09:34:36;18.50;98.50
16728;DHT22;8482;54.396;18.590;2022-09-06T09:37:24;18.50;98.20
16728;DHT22;8482;54.396;18.590;2022-09-06T09:39:55;18.60;98.40
16728;DHT22;8482;54.396;18.590;2022-09-06T09:42:31;18.70;98.00
16728;DHT22;8482;54.396;18.590;2022-09-06T09:45:01;18.70;97.80
16728;DHT22;8482;54.396;18.590;2022-09-06T09:47:42;18.80;97.10
16728;DHT22;8482;54.396;18.590;2022-09-06T09:52:52;18.90;95.90
16728;DHT22;8482;54.396;18.590;2022-09-06T09:55:27;18.90;95.10
16728;DHT22;8482;54.396;18.590;2022-09-06T09:57:53;18.90;94.80
16728;DHT22;8482;54.396;18.590;2022-09-06T10:00:36;19.00;94.70
16728;DHT22;8482;54.396;18.590;2022-09-06T10:05:42;19.10;94.50
16728;DHT22;8482;54.396;18.590;2022-09-06T10:08:23;19.10;94.30
16728;DHT22;8482;54.396;18.590;2022-09-06T10:10:50;19.10;94.00
16728;DHT22;8482;54.396;18.590;2022-09-06T10:13:23;19.20;93.50
16728;DHT22;8482;54.396;18.590;2022-09-06T10:15:58;19.20;92.80
16728;DHT22;8482;54.396;18.590;2022-09-06T10:18:29;19.30;91.90
16728;DHT22;8482;54.396;18.590;2022-09-06T10:24:09;19.40;91.20
16728;DHT22;8482;54.396;18.590;2022-09-06T10:26:50;19.40;91.50
16728;DHT22;8482;54.396;18.590;2022-09-06T10:35:01;19.50;89.70
16728;DHT22;8482;54.396;18.590;2022-09-06T10:41:24;19.70;88.50
16728;DHT22;8482;54.396;18.590;2022-09-06T10:47:14;19.80;86.90
16728;DHT22;8482;54.396;18.590;2022-09-06T10:49:45;19.90;86.40
16728;DHT22;8482;54.396;18.590;2022-09-06T10:52:32;19.90;85.60
16728;DHT22;8482;54.396;18.590;2022-09-06T10:55:02;20.00;85.90
16728;DHT22;8482;54.396;18.590;2022-09-06T10:57:40;20.00;86.30
16728;DHT22;8482;54.396;18.590;2022-09-06T11:00:10;20.10;86.20
16728;DHT22;8482;54.396;18.590;2022-09-06T11:03:02;20.10;86.70
16728;DHT22;8482;54.396;18.590;2022-09-06T11:05:44;20.20;86.50
16728;DHT22;8482;54.396;18.590;2022-09-06T11:08:29;20.20;84.50
16728;DHT22;8482;54.396;18.590;2022-09-06T11:11:19;20.30;83.60
16728;DHT22;8482;54.396;18.590;2022-09-06T11:13:52;20.30;83.80
16728;DHT22;8482;54.396;18.590;2022-09-06T11:16:24;20.40;83.80
16728;DHT22;8482;54.396;18.590;2022-09-06T11:19:11;20.40;83.80
16728;DHT22;8482;54.396;18.590;2022-09-06T11:27:37;20.70;82.80
16728;DHT22;8482;54.396;18.590;2022-09-06T11:30:11;20.70;81.40
16728;DHT22;8482;54.396;18.590;2022-09-06T11:32:42;20.80;81.50
16728;DHT22;8482;54.396;18.590;2022-09-06T11:35:28;20.90;80.40
16728;DHT22;8482;54.396;18.590;2022-09-06T11:40:45;21.10;80.60
16728;DHT22;8482;54.396;18.590;2022-09-06T11:49:37;21.30;80.20
16728;DHT22;8482;54.396;18.590;2022-09-06T11:55:21;21.40;79.60
16728;DHT22;8482;54.396;18.590;2022-09-06T11:58:25;21.50;79.40
16728;DHT22;8482;54.396;18.590;2022-09-06T12:06:18;21.60;76.50
16728;DHT22;8482;54.396;18.590;2022-09-06T12:08:48;21.60;75.80
16728;DHT22;8482;54.396;18.590;2022-09-06T12:11:36;21.70;75.70
16728;DHT22;8482;54.396;18.590;2022-09-06T12:14:07;21.70;74.80
16728;DHT22;8482;54.396;18.590;2022-09-06T12:19:49;21.80;73.50
16728;DHT22;8482;54.396;18.590;2022-09-06T12:27:32;22.00;73.30
16728;DHT22;8482;54.396;18.590;2022-09-06T12:30:10;22.00;73.30
16728;DHT22;8482;54.396;18.590;2022-09-06T12:32:54;22.10;73.30
16728;DHT22;8482;54.396;18.590;2022-09-06T12:35:25;22.10;72.60
16728;DHT22;8482;54.396;18.590;2022-09-06T12:37:58;22.10;71.30
16728;DHT22;8482;54.396;18.590;2022-09-06T12:40:28;22.10;70.40
16728;DHT22;8482;54.396;18.590;2022-09-06T12:42:57;22.10;70.30
16728;DHT22;8482;54.396;18.590;2022-09-06T12:45:24;22.10;69.80
16728;DHT22;8482;54.396;18.590;2022-09-06T12:48:09;22.10;70.60
16728;DHT22;8482;54.396;18.590;2022-09-06T12:50:37;22.20;69.30
16728;DHT22;8482;54.396;18.590;2022-09-06T12:53:21;22.10;69.30
16728;DHT22;8482;54.396;18.590;2022-09-06T12:56:04;22.10;69.40
16728;DHT22;8482;54.396;18.590;2022-09-06T12:58:32;22.10;69.50
16728;DHT22;8482;54.396;18.590;2022-09-06T13:01:10;22.10;69.10
16728;DHT22;8482;54.396;18.590;2022-09-06T13:04:29;22.10;69.70
16728;DHT22;8482;54.396;18.590;2022-09-06T13:06:41;22.10;70.50
16728;DHT22;8482;54.396;18.590;2022-09-06T13:09:12;22.20;69.70
16728;DHT22;8482;54.396;18.590;2022-09-06T13:11:49;22.30;69.90
16728;DHT22;8482;54.396;18.590;2022-09-06T13:14:23;22.40;69.30
16728;DHT22;8482;54.396;18.590;2022-09-06T13:16:52;22.50;68.80
16728;DHT22;8482;54.396;18.590;2022-09-06T13:19:38;22.60;68.10
16728;DHT22;8482;54.396;18.590;2022-09-06T13:22:08;22.60;68.30
16728;DHT22;8482;54.396;18.590;2022-09-06T13:24:43;22.60;69.20
16728;DHT22;8482;54.396;18.590;2022-09-06T13:27:33;22.60;69.60
16728;DHT22;8482;54.396;18.590;2022-09-06T13:30:08;22.70;68.70
16728;DHT22;8482;54.396;18.590;2022-09-06T13:32:44;22.60;69.50
16728;DHT22;8482;54.396;18.590;2022-09-06T13:35:21;22.70;68.80
16728;DHT22;8482;54.396;18.590;2022-09-06T13:37:48;22.60;68.80
16728;DHT22;8482;54.396;18.590;2022-09-06T13:40:40;22.60;69.00
16728;DHT22;8482;54.396;18.590;2022-09-06T13:43:11;22.70;69.10
16728;DHT22;8482;54.396;18.590;2022-09-06T13:45:38;22.60;69.80
16728;DHT22;8482;54.396;18.590;2022-09-06T13:48:05;22.50;69.90
16728;DHT22;8482;54.396;18.590;2022-09-06T13:50:31;22.40;70.20
16728;DHT22;8482;54.396;18.590;2022-09-06T13:52:57;22.30;70.20
16728;DHT22;8482;54.396;18.590;2022-09-06T13:55:27;22.30;70.20
16728;DHT22;8482;54.396;18.590;2022-09-06T13:57:55;22.20;70.00
16728;DHT22;8482;54.396;18.590;2022-09-06T14:00:21;22.10;70.20
16728;DHT22;8482;54.396;18.590;2022-09-06T14:02:48;22.00;70.80
16728;DHT22;8482;54.396;18.590;2022-09-06T14:05:15;22.00;71.80
16728;DHT22;8482;54.396;18.590;2022-09-06T14:07:42;21.90;71.90
16728;DHT22;8482;54.396;18.590;2022-09-06T14:10:09;21.90;72.00
16728;DHT22;8482;54.396;18.590;2022-09-06T14:12:36;21.80;71.70
16728;DHT22;8482;54.396;18.590;2022-09-06T14:15:04;21.80;72.20
16728;DHT22;8482;54.396;18.590;2022-09-06T14:17:30;21.80;72.60
16728;DHT22;8482;54.396;18.590;2022-09-06T14:19:57;21.70;72.60
16728;DHT22;8482;54.396;18.590;2022-09-06T14:22:23;21.80;73.10
16728;DHT22;8482;54.396;18.590;2022-09-06T14:24:49;21.80;73.20
16728;DHT22;8482;54.396;18.590;2022-09-06T14:27:15;21.80;72.90
16728;DHT22;8482;54.396;18.590;2022-09-06T14:29:42;21.80;72.90
16728;DHT22;8482;54.396;18.590;2022-09-06T14:32:07;21.80;72.60
16728;DHT22;8482;54.396;18.590;2022-09-06T14:34:33;21.80;72.70
16728;DHT22;8482;54.396;18.590;2022-09-06T14:36:59;21.80;72.10
16728;DHT22;8482;54.396;18.590;2022-09-06T14:39:25;21.80;72.70
16728;DHT22;8482;54.396;18.590;2022-09-06T14:41:52;21.90;72.20
16728;DHT22;8482;54.396;18.590;2022-09-06T14:44:18;21.90;72.70
16728;DHT22;8482;54.396;18.590;2022-09-06T14:46:44;21.90;72.70
16728;DHT22;8482;54.396;18.590;2022-09-06T14:49:12;21.90;72.60
16728;DHT22;8482;54.396;18.590;2022-09-06T14:51:38;22.00;72.70
16728;DHT22;8482;54.396;18.590;2022-09-06T14:54:10;22.10;72.00
16728;DHT22;8482;54.396;18.590;2022-09-06T14:56:39;22.00;72.10
16728;DHT22;8482;54.396;18.590;2022-09-06T14:59:06;22.10;72.80
16728;DHT22;8482;54.396;18.590;2022-09-06T15:01:34;22.10;73.10
16728;DHT22;8482;54.396;18.590;2022-09-06T15:04:02;22.10;72.60
16728;DHT22;8482;54.396;18.590;2022-09-06T15:06:34;22.10;72.30
16728;DHT22;8482;54.396;18.590;2022-09-06T15:09:02;22.00;72.20
16728;DHT22;8482;54.396;18.590;2022-09-06T15:11:33;22.00;72.80
16728;DHT22;8482;54.396;18.590;2022-09-06T15:14:07;21.80;72.40
16728;DHT22;8482;54.396;18.590;2022-09-06T15:16:38;21.70;72.80
16728;DHT22;8482;54.396;18.590;2022-09-06T15:19:03;21.60;73.40
16728;DHT22;8482;54.396;18.590;2022-09-06T15:21:30;21.40;74.00
16728;DHT22;8482;54.396;18.590;2022-09-06T15:23:56;21.30;74.50
16728;DHT22;8482;54.396;18.590;2022-09-06T15:26:23;21.20;75.10
16728;DHT22;8482;54.396;18.590;2022-09-06T15:28:49;21.00;75.30
16728;DHT22;8482;54.396;18.590;2022-09-06T15:31:16;20.90;75.60
16728;DHT22;8482;54.396;18.590;2022-09-06T15:33:44;20.70;76.30
16728;DHT22;8482;54.396;18.590;2022-09-06T15:36:10;20.50;77.00
16728;DHT22;8482;54.396;18.590;2022-09-06T15:38:49;20.40;77.70
16728;DHT22;8482;54.396;18.590;2022-09-06T15:41:24;20.20;78.00
16728;DHT22;8482;54.396;18.590;2022-09-06T15:43:59;20.10;78.40
16728;DHT22;8482;54.396;18.590;2022-09-06T15:47:02;20.00;78.60
16728;DHT22;8482;54.396;18.590;2022-09-06T15:49:30;19.80;79.20
16728;DHT22;8482;54.396;18.590;2022-09-06T15:51:58;19.70;80.10
16728;DHT22;8482;54.396;18.590;2022-09-06T15:54:26;19.60;81.00
16728;DHT22;8482;54.396;18.590;2022-09-06T15:57:13;19.50;81.50
16728;DHT22;8482;54.396;18.590;2022-09-06T15:59:40;19.50;81.60
16728;DHT22;8482;54.396;18.590;2022-09-06T16:02:07;19.30;81.40
16728;DHT22;8482;54.396;18.590;2022-09-06T16:04:33;19.20;81.70
16728;DHT22;8482;54.396;18.590;2022-09-06T16:06:59;19.20;81.80
16728;DHT22;8482;54.396;18.590;2022-09-06T16:09:25;19.10;82.00
16728;DHT22;8482;54.396;18.590;2022-09-06T16:11:51;19.00;82.20
16728;DHT22;8482;54.396;18.590;2022-09-06T16:14:19;18.90;82.50
16728;DHT22;8482;54.396;18.590;2022-09-06T16:16:45;18.80;82.70
16728;DHT22;8482;54.396;18.590;2022-09-06T16:19:18;18.80;83.00
16728;DHT22;8482;54.396;18.590;2022-09-06T16:21:44;18.70;83.60
16728;DHT22;8482;54.396;18.590;2022-09-06T16:24:12;18.60;84.20
16728;DHT22;8482;54.396;18.590;2022-09-06T16:26:41;18.50;84.60
16728;DHT22;8482;54.396;18.590;2022-09-06T16:29:10;18.50;85.00
16728;DHT22;8482;54.396;18.590;2022-09-06T16:31:37;18.40;85.10
16728;DHT22;8482;54.396;18.590;2022-09-06T16:34:03;18.40;85.60
16728;DHT22;8482;54.396;18.590;2022-09-06T16:36:28;18.30;86.10
16728;DHT22;8482;54.396;18.590;2022-09-06T16:38:55;18.30;86.70
16728;DHT22;8482;54.396;18.590;2022-09-06T16:41:35;18.20;87.40
16728;DHT22;8482;54.396;18.590;2022-09-06T16:44:12;18.10;87.70
16728;DHT22;8482;54.396;18.590;2022-09-06T16:46:42;18.10;88.10
16728;DHT22;8482;54.396;18.590;2022-09-06T16:49:12;18.00;88.50
16728;DHT22;8482;54.396;18.590;2022-09-06T16:51:41;17.90;89.00
16728;DHT22;8482;54.396;18.590;2022-09-06T16:54:07;17.90;89.40
16728;DHT22;8482;54.396;18.590;2022-09-06T16:56:34;17.80;89.70
16728;DHT22;8482;54.396;18.590;2022-09-06T16:59:03;17.80;89.90
16728;DHT22;8482;54.396;18.590;2022-09-06T17:01:32;17.80;90.10
16728;DHT22;8482;54.396;18.590;2022-09-06T17:03:59;17.70;90.30
16728;DHT22;8482;54.396;18.590;2022-09-06T17:06:30;17.70;90.70
16728;DHT22;8482;54.396;18.590;2022-09-06T17:08:57;17.70;91.00
16728;DHT22;8482;54.396;18.590;2022-09-06T17:11:24;17.60;91.20
16728;DHT22;8482;54.396;18.590;2022-09-06T17:13:51;17.60;91.40
16728;DHT22;8482;54.396;18.590;2022-09-06T17:16:19;17.60;91.50
16728;DHT22;8482;54.396;18.590;2022-09-06T17:19:05;17.60;91.70
16728;DHT22;8482;54.396;18.590;2022-09-06T17:21:32;17.50;92.00
16728;DHT22;8482;54.396;18.590;2022-09-06T17:23:59;17.50;92.20
16728;DHT22;8482;54.396;18.590;2022-09-06T17:26:31;17.40;92.40